To NAV CANADA Home Page Login to a new session Search on AWWS site Feedback and Comments Disclaimer Vers la page française équivalente Tips FAQ What's new on the site To the Forecasts and Observations / NOTAM section To "File a Flight Plan" website Publications and other links Update of the User's profile FIC Telephone Numbers My Weather Data Folder Route Weather Data Regional Weather Data Local Weather Data To the Forecasts and Observations / NOTAM section
Request Generated 05/02/2016 at 08:14:19 UTC . Weather information available at that time is displayed.

METAR/TAF

GRANDE PRAIRIE/AB    

METAR CYQU 020800Z 31006KT 25SM SCT250 08/03 A3004 RMK CI3 SLP183=
METAR CYQU 020700Z VRB02KT 25SM FEW100 SCT250 08/04 A3005 RMK AC1CI3
SLP187=
METAR CYQU 020600Z 02003KT 25SM FEW100 BKN250 11/05 A3005 RMK AC1CI5
SLP187=

TAF CYQU 020638Z 0207/0219 02003KT P6SM SCT250
BECMG 0211/0213 08005KT
BECMG 0216/0218 23008KT
RMK NXT FCST BY 021300Z=
Your time UTC time
Weather data provided by Environment Canada and NAV CANADA